Time;durP1;ratioP1;P1;durP2;ratioP2;P2;SDS_P1;SDS_P2;PMS_P1;PMS_P2;Temp;Humidity;BMP_temperature;BMP_pressure;BME280_temperature;BME280_humidity;BME280_pressure;Samples;Min_cycle;Max_cycle;Signal;HPM_P1;HPM_P2
2022/01/24 00:00:13;;;;;;;8.68;4.80;;;6.10;87.00;;;;;;5035091;28;20026;-48
2022/01/24 00:02:41;;;;;;;7.18;5.03;;;6.10;86.90;;;;;;5034673;28;20665;-47
2022/01/24 00:05:07;;;;;;;8.32;5.47;;;6.10;86.90;;;;;;5034778;28;20040;-46
2022/01/24 00:07:33;;;;;;;7.45;5.18;;;6.10;86.80;;;;;;5034037;28;20045;-49
2022/01/24 00:10:05;;;;;;;7.78;5.13;;;6.10;86.80;;;;;;5035076;28;20044;-51
2022/01/24 00:12:44;;;;;;;8.00;5.10;;;6.10;86.90;;;;;;5034266;28;20033;-46
2022/01/24 00:15:51;;;;;;;6.90;5.43;;;6.10;86.80;;;;;;5028632;28;20022;-52
2022/01/24 00:18:26;;;;;;;6.47;5.18;;;6.10;86.90;;;;;;5034565;28;20072;-50
2022/01/24 00:29:04;;;;;;;6.35;4.93;;;6.00;86.80;;;;;;5031766;28;20052;-47
2022/01/24 00:31:30;;;;;;;10.80;5.45;;;6.10;86.70;;;;;;5034380;28;20037;-48
2022/01/24 00:33:55;;;;;;;8.18;5.65;;;6.10;86.70;;;;;;5017452;28;20116;-50
2022/01/24 00:36:21;;;;;;;5.90;4.70;;;6.00;86.70;;;;;;5034873;28;20048;-52
2022/01/24 00:38:46;;;;;;;6.10;4.93;;;6.00;86.80;;;;;;5034515;28;20053;-46
2022/01/24 00:41:15;;;;;;;7.22;5.63;;;6.00;86.80;;;;;;5014080;28;20030;-47
2022/01/24 00:46:36;;;;;;;7.43;5.38;;;6.00;86.80;;;;;;5014871;28;20284;-48
2022/01/24 00:56:56;;;;;;;7.03;5.15;;;5.90;86.80;;;;;;5033922;28;20040;-46
2022/01/24 00:59:22;;;;;;;6.68;5.43;;;5.90;86.80;;;;;;5033460;28;20063;-48
2022/01/24 01:01:47;;;;;;;10.05;5.25;;;5.90;86.90;;;;;;5034417;28;20030;-49
2022/01/24 01:04:14;;;;;;;8.07;5.50;;;5.90;86.90;;;;;;5033344;28;20691;-52
2022/01/24 01:06:43;;;;;;;6.13;5.35;;;5.90;86.80;;;;;;5034400;28;20336;-49
2022/01/24 01:20:05;;;;;;;7.55;5.35;;;6.00;86.60;;;;;;5033973;28;20076;-47
2022/01/24 01:22:31;;;;;;;6.97;4.90;;;5.90;86.60;;;;;;5033555;28;20040;-46
2022/01/24 01:24:57;;;;;;;6.28;4.82;;;6.00;86.70;;;;;;5033807;28;20041;-49
2022/01/24 01:27:34;;;;;;;7.15;5.15;;;5.90;86.50;;;;;;5033571;28;20037;-46
2022/01/24 01:30:16;;;;;;;5.93;4.60;;;5.90;86.50;;;;;;5034147;28;20079;-47
2022/01/24 01:54:19;;;;;;;6.65;5.60;;;5.90;86.20;;;;;;5031788;28;20394;-45
2022/01/24 01:56:44;;;;;;;6.38;5.03;;;5.90;86.20;;;;;;5033275;28;20043;-46
2022/01/24 01:59:11;;;;;;;9.40;5.38;;;5.90;86.00;;;;;;5033053;28;20120;-46
2022/01/24 02:01:37;;;;;;;9.07;5.18;;;5.90;86.10;;;;;;5033495;28;20036;-49
2022/01/24 02:04:05;;;;;;;6.97;5.00;;;5.90;86.00;;;;;;5032575;28;21526;-48
2022/01/24 02:06:32;;;;;;;6.93;4.40;;;5.90;86.00;;;;;;5032818;28;20041;-46
2022/01/24 02:09:04;;;;;;;5.38;4.18;;;6.00;86.00;;;;;;5033323;28;20040;-46
2022/01/24 02:11:30;;;;;;;6.13;4.65;;;6.00;85.90;;;;;;5033130;28;20030;-49
2022/01/24 02:13:59;;;;;;;5.75;4.90;;;5.90;85.90;;;;;;5032080;28;20047;-47
2022/01/24 02:19:09;;;;;;;8.23;5.43;;;5.90;85.80;;;;;;5033025;28;20264;-46
2022/01/24 02:24:19;;;;;;;7.53;4.32;;;5.90;85.80;;;;;;5028606;28;20619;-50
2022/01/24 02:26:48;;;;;;;6.75;4.82;;;5.90;85.50;;;;;;5032247;28;20033;-46
2022/01/24 02:31:59;;;;;;;6.95;5.22;;;5.90;85.40;;;;;;5042379;28;20038;-50
2022/01/24 02:34:34;;;;;;;6.65;5.55;;;5.90;85.60;;;;;;5032494;28;20033;-46
2022/01/24 02:37:12;;;;;;;7.13;4.57;;;5.90;85.50;;;;;;5033068;28;20021;-47
2022/01/24 02:53:16;;;;;;;6.57;4.75;;;5.90;85.20;;;;;;5033345;28;20044;-48
2022/01/24 02:55:43;;;;;;;6.88;4.80;;;5.90;85.20;;;;;;5032854;28;20052;-46
2022/01/24 02:58:09;;;;;;;5.57;4.55;;;5.90;85.30;;;;;;5032799;28;20029;-47
2022/01/24 03:00:38;;;;;;;6.50;5.38;;;5.90;85.20;;;;;;5031927;28;20464;-50
2022/01/24 03:03:04;;;;;;;7.63;4.80;;;5.90;85.20;;;;;;5027147;28;20026;-47
2022/01/24 03:05:30;;;;;;;5.78;4.03;;;5.90;85.10;;;;;;5048909;28;20087;-46
2022/01/24 03:07:56;;;;;;;6.70;4.63;;;5.90;85.10;;;;;;5031987;28;20036;-50
2022/01/24 03:10:28;;;;;;;6.03;4.93;;;5.90;85.20;;;;;;5032218;28;20030;-47
2022/01/24 03:15:36;;;;;;;6.40;4.80;;;5.90;85.00;;;;;;5034441;28;20064;-50
2022/01/24 03:18:01;;;;;;;6.60;4.53;;;5.90;85.00;;;;;;5036045;28;20021;-51
2022/01/24 03:20:27;;;;;;;5.82;4.35;;;5.90;85.10;;;;;;5035757;28;20040;-46
2022/01/24 03:22:55;;;;;;;6.93;4.55;;;5.80;85.00;;;;;;5035535;28;20037;-49
2022/01/24 03:25:20;;;;;;;8.00;4.90;;;5.80;85.10;;;;;;5034767;28;20044;-47
2022/01/24 03:27:46;;;;;;;8.50;5.53;;;5.80;84.90;;;;;;5035516;28;20030;-49
2022/01/24 03:30:12;;;;;;;6.60;5.53;;;5.80;85.00;;;;;;5034539;28;20030;-47
2022/01/24 03:32:37;;;;;;;7.97;5.22;;;5.80;85.10;;;;;;5035640;28;20037;-46
2022/01/24 03:35:07;;;;;;;8.93;5.22;;;5.80;85.10;;;;;;5035265;28;20060;-48
2022/01/24 03:37:37;;;;;;;6.65;4.97;;;5.80;85.00;;;;;;5032071;28;20455;-49
2022/01/24 03:40:03;;;;;;;;;;;5.80;84.90;;;;;;5035847;28;20418;-46
2022/01/24 03:42:29;;;;;;;7.07;4.97;;;5.80;84.80;;;;;;5035117;28;20358;-46
2022/01/24 03:44:58;;;;;;;8.50;5.25;;;5.80;84.90;;;;;;5035439;28;20064;-52
2022/01/24 03:47:44;;;;;;;7.32;4.65;;;5.80;84.80;;;;;;5034949;28;20030;-46
2022/01/24 03:50:15;;;;;;;7.00;5.15;;;5.70;84.60;;;;;;5035500;28;20132;-47
2022/01/24 03:52:44;;;;;;;6.93;4.90;;;5.70;84.60;;;;;;5035801;28;20041;-47
2022/01/24 03:55:10;;;;;;;7.60;5.95;;;5.80;84.80;;;;;;5033214;28;20056;-47
2022/01/24 03:57:36;;;;;;;8.00;6.00;;;5.70;84.50;;;;;;5035736;28;20116;-50
2022/01/24 04:00:03;;;;;;;6.10;4.75;;;5.70;84.30;;;;;;5035256;28;20490;-48
2022/01/24 04:02:28;;;;;;;7.40;5.32;;;5.80;84.70;;;;;;5035524;28;20030;-50
2022/01/24 04:04:54;;;;;;;7.25;5.93;;;5.70;84.60;;;;;;5035119;28;20060;-48
2022/01/24 04:07:20;;;;;;;6.65;4.97;;;5.70;84.60;;;;;;5034661;28;20405;-51
2022/01/24 04:09:46;;;;;;;7.80;6.20;;;5.70;84.70;;;;;;5035209;28;20029;-50
2022/01/24 04:12:13;;;;;;;6.75;5.20;;;5.70;84.40;;;;;;5034917;28;20132;-48
2022/01/24 04:15:43;;;;;;;7.82;6.22;;;5.70;84.40;;;;;;5034845;28;20033;-48
2022/01/24 04:17:37;;;;;;;6.32;5.13;;;5.70;84.60;;;;;;5030155;28;20081;-50
2022/01/24 04:22:52;;;;;;;6.22;5.03;;;5.70;84.40;;;;;;5033923;28;20036;-48
2022/01/24 04:25:22;;;;;;;8.88;6.55;;;5.70;84.50;;;;;;5033761;28;20132;-45
2022/01/24 04:27:50;;;;;;;6.95;5.38;;;5.60;84.30;;;;;;5034505;28;20048;-46
2022/01/24 04:30:15;;;;;;;8.52;6.22;;;5.60;84.50;;;;;;5034297;28;20037;-47
2022/01/24 04:32:41;;;;;;;10.05;6.28;;;5.60;84.40;;;;;;5034561;28;20033;-46
2022/01/24 04:35:07;;;;;;;8.02;5.53;;;5.70;84.70;;;;;;5044793;28;20474;-47
2022/01/24 04:37:35;;;;;;;7.72;5.82;;;5.60;84.40;;;;;;5034315;28;20108;-49
2022/01/24 04:40:01;;;;;;;8.18;6.15;;;5.60;84.50;;;;;;5034255;28;20045;-46
2022/01/24 04:42:38;;;;;;;7.18;5.82;;;5.60;84.40;;;;;;5034469;28;20029;-46
2022/01/24 04:45:29;;;;;;;9.32;6.45;;;5.50;84.40;;;;;;5033828;28;20061;-46
2022/01/24 04:51:00;;;;;;;8.20;6.30;;;5.60;84.50;;;;;;5033940;28;20096;-47
2022/01/24 04:56:04;;;;;;;7.75;6.22;;;5.50;84.50;;;;;;5033901;28;20033;-46
2022/01/24 04:58:30;;;;;;;10.48;7.43;;;5.50;84.40;;;;;;5033611;28;20030;-46
2022/01/24 05:00:56;;;;;;;9.15;6.72;;;5.50;84.40;;;;;;5033766;28;20068;-46
2022/01/24 05:03:21;;;;;;;9.27;6.85;;;5.50;84.60;;;;;;5033716;28;20068;-46
2022/01/24 05:05:48;;;;;;;10.52;7.70;;;5.60;84.50;;;;;;5032667;28;20041;-48
2022/01/24 05:08:15;;;;;;;9.80;7.93;;;5.50;84.70;;;;;;5016048;28;20351;-46
2022/01/24 05:10:59;;;;;;;10.07;7.63;;;5.50;84.50;;;;;;5033368;28;20561;-46
2022/01/24 05:24:20;;;;;;;10.55;7.70;;;5.50;84.50;;;;;;5027926;28;20139;-45
2022/01/24 05:26:46;;;;;;;10.48;7.90;;;5.50;84.50;;;;;;5033017;28;20030;-49
2022/01/24 05:29:12;;;;;;;10.90;8.30;;;5.40;84.30;;;;;;5032719;28;20029;-47
2022/01/24 05:31:37;;;;;;;12.15;8.93;;;5.50;84.60;;;;;;5030988;28;20187;-48
2022/01/24 05:34:03;;;;;;;9.70;7.63;;;5.40;84.40;;;;;;5032899;28;20499;-46
2022/01/24 05:36:34;;;;;;;9.60;7.50;;;5.40;84.50;;;;;;5015563;28;20017;-49
2022/01/24 05:39:00;;;;;;;10.32;8.25;;;5.40;84.50;;;;;;5029659;28;20029;-48
2022/01/24 05:41:27;;;;;;;10.65;8.48;;;5.40;84.50;;;;;;5033070;28;20125;-46
2022/01/24 05:43:52;;;;;;;12.02;7.93;;;5.40;84.40;;;;;;5032676;28;20041;-47
2022/01/24 05:46:18;;;;;;;11.18;8.65;;;5.40;84.40;;;;;;5032578;28;20743;-47
2022/01/24 05:48:44;;;;;;;12.10;8.55;;;5.40;84.50;;;;;;5032796;28;20462;-46
2022/01/24 05:51:09;;;;;;;11.15;8.63;;;5.40;84.50;;;;;;5032869;28;20100;-46
2022/01/24 05:53:35;;;;;;;11.60;9.40;;;5.40;84.60;;;;;;5031077;28;20037;-46
2022/01/24 05:56:03;;;;;;;11.82;9.82;;;5.40;84.40;;;;;;5031870;28;20343;-47
2022/01/24 05:58:28;;;;;;;10.48;8.15;;;5.40;84.40;;;;;;5033206;28;20037;-47
2022/01/24 06:00:54;;;;;;;11.15;9.13;;;5.40;84.50;;;;;;5032997;28;20084;-46
2022/01/24 06:03:20;;;;;;;12.82;9.90;;;5.40;84.40;;;;;;5033303;28;20037;-45
2022/01/24 06:05:46;;;;;;;13.20;9.63;;;5.40;84.70;;;;;;5033224;28;20018;-48
2022/01/24 06:08:12;;;;;;;15.20;10.55;;;5.40;84.70;;;;;;5032234;28;20125;-45
2022/01/24 06:10:38;;;;;;;16.17;10.57;;;5.40;84.80;;;;;;5032122;28;20398;-46
2022/01/24 06:13:04;;;;;;;14.10;9.55;;;5.40;84.60;;;;;;5032568;28;20022;-46
2022/01/24 06:15:30;;;;;;;11.02;9.32;;;5.40;84.60;;;;;;5032393;28;20087;-48
2022/01/24 06:17:55;;;;;;;14.02;10.20;;;5.40;84.70;;;;;;5032640;28;20435;-45
2022/01/24 06:20:21;;;;;;;13.60;10.02;;;5.40;84.70;;;;;;5031626;28;20185;-47
2022/01/24 06:22:47;;;;;;;12.18;9.15;;;5.30;84.60;;;;;;5032338;28;20034;-47
2022/01/24 06:25:13;;;;;;;11.55;9.07;;;5.40;84.70;;;;;;5031864;28;20030;-47
2022/01/24 06:27:42;;;;;;;11.95;9.57;;;5.30;84.50;;;;;;5032008;28;20088;-46
2022/01/24 06:30:08;;;;;;;11.55;8.80;;;5.30;84.60;;;;;;5032077;28;20029;-53
2022/01/24 06:32:38;;;;;;;11.80;9.55;;;5.40;84.70;;;;;;5032005;28;20036;-46
2022/01/24 06:35:04;;;;;;;12.80;9.48;;;5.40;84.80;;;;;;5031826;28;20034;-46
2022/01/24 06:37:29;;;;;;;11.85;9.75;;;5.30;84.50;;;;;;5032004;28;20424;-48
2022/01/24 06:39:55;;;;;;;10.73;8.50;;;5.20;84.50;;;;;;5030941;28;20499;-48
2022/01/24 06:42:24;;;;;;;11.40;8.40;;;5.20;84.50;;;;;;5032096;28;20056;-50
2022/01/24 06:44:51;;;;;;;12.88;10.00;;;5.30;84.60;;;;;;5031654;28;20061;-49
2022/01/24 06:47:17;;;;;;;10.95;9.20;;;5.30;84.50;;;;;;5029211;28;20025;-48
2022/01/24 06:49:42;;;;;;;13.15;9.73;;;5.20;84.30;;;;;;5034109;28;20045;-48
2022/01/24 06:52:08;;;;;;;11.00;9.07;;;5.20;84.30;;;;;;5036311;28;20502;-47
2022/01/24 06:54:35;;;;;;;16.08;10.43;;;5.20;84.30;;;;;;5035846;28;20033;-46
2022/01/24 06:57:02;;;;;;;13.10;10.27;;;5.20;84.40;;;;;;5036079;28;20037;-45
2022/01/24 06:59:28;;;;;;;12.73;10.40;;;5.20;84.40;;;;;;5032404;28;20033;-49
2022/01/24 07:01:54;;;;;;;14.93;10.95;;;5.30;84.20;;;;;;5035507;28;20470;-51
2022/01/24 07:04:20;;;;;;;20.35;10.20;;;5.20;84.00;;;;;;5035858;28;20026;-45
2022/01/24 07:06:46;;;;;;;13.25;10.00;;;5.20;84.20;;;;;;5035340;28;20080;-49
2022/01/24 07:09:13;;;;;;;20.30;12.05;;;5.30;84.00;;;;;;5036011;28;20116;-45
2022/01/24 07:11:39;;;;;;;14.90;11.15;;;5.30;83.90;;;;;;5016816;28;20052;-45
2022/01/24 07:14:10;;;;;;;19.38;14.27;;;5.30;83.90;;;;;;5029595;28;20431;-49
2022/01/24 07:17:00;;;;;;;20.25;13.93;;;5.20;83.90;;;;;;5034747;28;20033;-47
2022/01/24 07:19:26;;;;;;;21.08;14.20;;;5.30;84.00;;;;;;5035765;28;20037;-48
2022/01/24 07:21:59;;;;;;;21.83;15.40;;;5.30;84.20;;;;;;5032178;28;20109;-48
2022/01/24 07:24:25;;;;;;;20.25;13.70;;;5.30;84.00;;;;;;5036808;28;20091;-45
2022/01/24 07:26:53;;;;;;;17.35;14.30;;;5.30;84.20;;;;;;5035565;28;20105;-48
2022/01/24 07:29:22;;;;;;;18.25;13.75;;;5.20;84.10;;;;;;5035726;28;20048;-47
2022/01/24 07:31:47;;;;;;;20.75;15.38;;;5.30;84.30;;;;;;5031457;28;20423;-46
2022/01/24 07:34:14;;;;;;;22.23;15.32;;;5.30;84.30;;;;;;5026891;28;20057;-46
2022/01/24 07:36:40;;;;;;;24.92;17.95;;;5.30;84.40;;;;;;5034299;28;20033;-49
2022/01/24 07:39:05;;;;;;;24.05;17.27;;;5.30;84.60;;;;;;5034365;28;20473;-46
2022/01/24 07:41:33;;;;;;;29.30;19.83;;;5.20;84.60;;;;;;5034363;28;20025;-46
2022/01/24 07:43:59;;;;;;;26.55;19.70;;;5.30;84.60;;;;;;5035042;28;20073;-47
2022/01/24 07:46:25;;;;;;;27.40;19.95;;;5.30;84.10;;;;;;5035440;28;20068;-46
2022/01/24 07:48:51;;;;;;;27.25;19.55;;;5.20;84.20;;;;;;5035410;28;20430;-48
2022/01/24 07:51:16;;;;;;;28.35;20.25;;;5.20;84.40;;;;;;5035760;28;20087;-46
2022/01/24 07:53:43;;;;;;;28.77;20.15;;;5.20;84.20;;;;;;5034599;28;20072;-50
2022/01/24 07:56:09;;;;;;;31.17;20.13;;;5.20;84.20;;;;;;5033207;28;20053;-47
2022/01/24 07:58:35;;;;;;;29.55;20.20;;;5.20;84.20;;;;;;5033041;28;20037;-45
2022/01/24 08:01:04;;;;;;;28.45;19.77;;;5.20;84.10;;;;;;5029520;28;20037;-47
2022/01/24 08:03:29;;;;;;;31.60;22.15;;;5.20;84.20;;;;;;5028123;28;20033;-47
2022/01/24 08:05:57;;;;;;;28.52;20.45;;;5.20;84.20;;;;;;5032685;28;20625;-46
2022/01/24 08:08:25;;;;;;;30.48;21.63;;;5.20;84.10;;;;;;5032658;28;20526;-45
2022/01/24 08:10:51;;;;;;;28.02;20.15;;;5.20;84.00;;;;;;5030167;28;20033;-47
2022/01/24 08:13:19;;;;;;;31.90;19.95;;;5.20;84.20;;;;;;5030587;28;20044;-47
2022/01/24 08:15:45;;;;;;;28.98;21.13;;;5.20;84.20;;;;;;5033644;28;20048;-47
2022/01/24 08:18:11;;;;;;;29.33;20.98;;;5.20;84.50;;;;;;5033275;28;20381;-49
2022/01/24 08:20:37;;;;;;;29.52;19.05;;;5.30;84.50;;;;;;5033954;28;20072;-47
2022/01/24 08:23:02;;;;;;;29.50;20.38;;;5.30;84.50;;;;;;5034377;28;20108;-52
2022/01/24 08:25:30;;;;;;;28.85;19.48;;;5.30;84.50;;;;;;5033875;28;20037;-46
2022/01/24 08:27:56;;;;;;;28.77;20.55;;;5.30;84.60;;;;;;5033243;28;20037;-50
2022/01/24 08:30:24;;;;;;;25.02;18.88;;;5.30;84.70;;;;;;5032611;28;20043;-47
2022/01/24 08:32:50;;;;;;;28.45;18.65;;;5.30;84.70;;;;;;5032623;28;20025;-49
2022/01/24 08:35:18;;;;;;;28.55;19.42;;;5.30;84.70;;;;;;5034050;28;20046;-46
2022/01/24 08:37:46;;;;;;;27.73;18.88;;;5.30;84.70;;;;;;5033248;28;20034;-48
2022/01/24 08:40:21;;;;;;;28.45;20.65;;;5.30;84.50;;;;;;5033238;28;20412;-46
2022/01/24 08:48:07;;;;;;;26.88;18.25;;;5.40;84.50;;;;;;5032521;28;20498;-50
2022/01/24 08:50:33;;;;;;;23.10;17.30;;;5.40;84.40;;;;;;5033219;28;20040;-52
2022/01/24 08:52:59;;;;;;;23.67;17.13;;;5.40;84.30;;;;;;5033693;28;20037;-49
2022/01/24 08:55:31;;;;;;;27.42;19.20;;;5.40;84.40;;;;;;5032738;28;20041;-47
2022/01/24 08:57:58;;;;;;;25.48;17.85;;;5.40;84.30;;;;;;5033740;28;20021;-48
2022/01/24 09:00:24;;;;;;;22.70;17.23;;;5.40;84.20;;;;;;5033209;28;20033;-48
2022/01/24 09:02:50;;;;;;;23.45;17.30;;;5.40;84.30;;;;;;5032253;28;20036;-46
2022/01/24 09:05:22;;;;;;;24.63;18.40;;;5.40;84.60;;;;;;5032515;28;20025;-47
2022/01/24 09:07:48;;;;;;;24.17;17.70;;;5.40;84.40;;;;;;5033744;28;20029;-46
2022/01/24 09:10:14;;;;;;;21.67;16.90;;;5.40;84.30;;;;;;5031811;28;20037;-51
2022/01/24 09:12:40;;;;;;;23.63;16.95;;;5.40;84.40;;;;;;5031189;28;20441;-51
2022/01/24 09:15:06;;;;;;;22.85;17.67;;;5.40;84.50;;;;;;5032810;28;20064;-51
2022/01/24 09:17:31;;;;;;;22.05;17.02;;;5.40;84.40;;;;;;5032550;28;20064;-46
2022/01/24 09:19:57;;;;;;;20.23;15.82;;;5.40;84.30;;;;;;5031462;28;20040;-47
2022/01/24 09:22:23;;;;;;;25.80;16.00;;;5.50;84.50;;;;;;5032683;28;20355;-48
2022/01/24 09:24:48;;;;;;;21.17;16.33;;;5.40;84.30;;;;;;5032176;28;20047;-49
2022/01/24 09:27:15;;;;;;;23.25;17.42;;;5.50;84.20;;;;;;5032098;28;20624;-49
2022/01/24 09:29:43;;;;;;;21.95;15.75;;;5.50;84.50;;;;;;5031650;28;20045;-47
2022/01/24 09:32:08;;;;;;;21.25;15.82;;;5.40;84.50;;;;;;5032259;28;20102;-49
2022/01/24 09:34:34;;;;;;;20.73;16.13;;;5.50;84.50;;;;;;5032207;28;20484;-47
2022/01/24 09:37:00;;;;;;;20.90;17.05;;;5.50;84.40;;;;;;5031381;28;20056;-48
2022/01/24 09:39:25;;;;;;;18.83;15.32;;;5.50;84.50;;;;;;5031273;28;20044;-47
2022/01/24 09:41:53;;;;;;;23.70;16.17;;;5.50;84.50;;;;;;5032116;28;20038;-47
2022/01/24 09:44:19;;;;;;;19.88;15.45;;;5.60;84.50;;;;;;5030050;28;20038;-50
2022/01/24 09:46:46;;;;;;;23.17;16.13;;;5.50;84.50;;;;;;5032403;28;20365;-46
2022/01/24 09:49:14;;;;;;;21.08;15.55;;;5.60;84.50;;;;;;5032926;28;20025;-46
2022/01/24 09:51:43;;;;;;;20.23;15.40;;;5.60;84.10;;;;;;5032780;28;20061;-49
2022/01/24 09:54:09;;;;;;;20.02;16.05;;;5.70;84.00;;;;;;5031959;28;20060;-47
2022/01/24 09:56:35;;;;;;;20.63;15.57;;;5.70;84.10;;;;;;5032548;28;20060;-46
2022/01/24 09:59:01;;;;;;;22.42;15.30;;;5.70;83.90;;;;;;5032098;28;20175;-47
2022/01/24 10:01:30;;;;;;;22.60;14.98;;;5.70;83.70;;;;;;5032717;28;20034;-48
2022/01/24 10:04:16;;;;;;;18.60;14.25;;;5.70;83.70;;;;;;5032247;28;20021;-50
2022/01/24 10:07:03;;;;;;;18.65;15.15;;;5.70;83.50;;;;;;5032626;28;20112;-47
2022/01/24 10:09:33;;;;;;;17.95;14.07;;;5.70;83.50;;;;;;5032682;28;20033;-49
2022/01/24 10:12:12;;;;;;;20.02;15.10;;;5.70;83.70;;;;;;5032098;28;20067;-48
2022/01/24 10:17:24;;;;;;;19.25;13.88;;;5.70;83.60;;;;;;5033115;28;20045;-48
2022/01/24 10:19:50;;;;;;;18.77;14.43;;;5.80;83.80;;;;;;5031089;28;20029;-48
2022/01/24 10:22:20;;;;;;;21.08;14.60;;;5.80;83.60;;;;;;5033654;28;20072;-50
2022/01/24 10:24:49;;;;;;;21.27;14.85;;;5.80;83.80;;;;;;5034848;28;20524;-46
2022/01/24 10:27:20;;;;;;;19.70;14.82;;;5.80;83.50;;;;;;5036560;28;20029;-49
2022/01/24 10:29:51;;;;;;;19.10;13.57;;;5.80;83.40;;;;;;5036553;28;20091;-48
2022/01/24 10:32:28;;;;;;;18.23;14.02;;;5.80;83.50;;;;;;5036637;28;20109;-48
2022/01/24 10:34:54;;;;;;;20.90;13.38;;;5.80;83.50;;;;;;5036202;28;20422;-47
2022/01/24 10:37:22;;;;;;;18.90;15.35;;;5.80;83.40;;;;;;5036607;28;20057;-47
2022/01/24 10:39:56;;;;;;;18.35;14.13;;;5.90;83.30;;;;;;5035860;28;20370;-50
2022/01/24 10:45:32;;;;;;;18.52;14.38;;;5.90;83.20;;;;;;5014303;28;20054;-48
2022/01/24 10:47:57;;;;;;;20.05;14.25;;;5.90;82.90;;;;;;5013461;28;20037;-47
2022/01/24 10:50:29;;;;;;;16.30;12.50;;;6.00;82.90;;;;;;5013771;28;20045;-49
2022/01/24 10:52:57;;;;;;;17.40;13.30;;;6.00;82.80;;;;;;5012933;28;20046;-47
2022/01/24 10:55:28;;;;;;;17.27;14.63;;;6.10;82.90;;;;;;5010819;28;20034;-46
2022/01/24 10:58:09;;;;;;;18.15;14.45;;;6.10;82.90;;;;;;5013490;28;20069;-47
2022/01/24 11:00:36;;;;;;;21.73;14.40;;;6.10;82.70;;;;;;5012017;28;20093;-49
2022/01/24 11:03:03;;;;;;;16.88;12.90;;;6.00;82.90;;;;;;5013273;28;20146;-47
2022/01/24 11:05:33;;;;;;;18.33;13.55;;;6.10;83.10;;;;;;5012451;28;20037;-47
2022/01/24 11:08:00;;;;;;;20.83;14.20;;;6.00;82.70;;;;;;5013277;28;20032;-46
2022/01/24 11:10:29;;;;;;;20.45;15.88;;;6.10;82.60;;;;;;5013076;28;20574;-49
2022/01/24 11:12:55;;;;;;;18.37;14.50;;;6.00;82.70;;;;;;4997284;28;20471;-48
2022/01/24 11:15:22;;;;;;;17.75;13.98;;;6.10;82.60;;;;;;5016977;28;20127;-46
2022/01/24 11:17:48;;;;;;;17.48;13.50;;;6.10;82.70;;;;;;5034759;28;20601;-50
2022/01/24 11:20:18;;;;;;;20.65;14.18;;;6.10;82.60;;;;;;5034746;28;20029;-50
2022/01/24 11:22:47;;;;;;;21.50;15.20;;;6.20;82.30;;;;;;5034545;28;20026;-49
2022/01/24 11:25:14;;;;;;;20.63;14.07;;;6.20;82.40;;;;;;5035707;28;20032;-48
2022/01/24 11:27:43;;;;;;;20.92;14.90;;;6.20;82.10;;;;;;5035494;28;20030;-46
2022/01/24 11:30:14;;;;;;;19.50;14.85;;;6.20;82.60;;;;;;5034806;28;20036;-47
2022/01/24 11:33:01;;;;;;;19.63;15.15;;;6.20;82.40;;;;;;5034384;28;20033;-52
2022/01/24 11:35:35;;;;;;;17.40;13.55;;;6.20;82.00;;;;;;5034028;28;20096;-48
2022/01/24 11:38:02;;;;;;;19.52;14.90;;;6.20;81.90;;;;;;5035016;28;20478;-48
2022/01/24 11:40:45;;;;;;;18.73;14.68;;;6.20;82.30;;;;;;5033979;28;20035;-48
2022/01/24 11:43:33;;;;;;;19.17;12.98;;;6.20;82.00;;;;;;5032289;28;20540;-48
2022/01/24 11:46:05;;;;;;;20.48;14.57;;;6.20;82.10;;;;;;5034350;28;20454;-49
2022/01/24 11:48:32;;;;;;;17.90;13.88;;;6.30;82.80;;;;;;5035377;28;20073;-46
2022/01/24 11:51:07;;;;;;;20.10;14.52;;;6.30;81.50;;;;;;5034960;28;20063;-48
2022/01/24 11:53:38;;;;;;;18.27;14.55;;;6.30;82.00;;;;;;5034768;28;20457;-46
2022/01/24 11:56:24;;;;;;;18.88;14.07;;;6.30;81.90;;;;;;5032291;28;20033;-50
2022/01/24 11:58:51;;;;;;;19.38;14.82;;;6.40;81.70;;;;;;5035231;28;20112;-46
2022/01/24 12:01:38;;;;;;;20.65;14.57;;;6.30;81.60;;;;;;5034391;28;20075;-46
2022/01/24 12:04:04;;;;;;;21.10;15.50;;;6.30;81.70;;;;;;5034541;28;20018;-47
2022/01/24 12:06:30;;;;;;;18.88;14.27;;;6.30;81.40;;;;;;5033490;28;20382;-48
2022/01/24 12:09:05;;;;;;;19.60;15.10;;;6.30;81.50;;;;;;5033524;28;20029;-49
2022/01/24 12:11:36;;;;;;;22.25;16.70;;;6.30;81.40;;;;;;5033729;28;20119;-51
2022/01/24 12:14:13;;;;;;;21.17;16.05;;;6.20;81.10;;;;;;5033076;28;20060;-46
2022/01/24 12:16:42;;;;;;;18.65;13.85;;;6.20;81.20;;;;;;5033426;28;20033;-47
2022/01/24 12:19:10;;;;;;;19.23;15.40;;;6.20;81.40;;;;;;5034610;28;20041;-50
2022/01/24 12:21:38;;;;;;;20.05;14.70;;;6.20;81.70;;;;;;5033242;28;20048;-48
2022/01/24 12:24:08;;;;;;;20.17;16.00;;;6.20;81.50;;;;;;5034273;28;20047;-51
2022/01/24 12:26:39;;;;;;;21.25;16.52;;;6.30;81.40;;;;;;5033970;28;20394;-49
2022/01/24 12:29:14;;;;;;;21.80;15.50;;;6.20;81.40;;;;;;5034635;28;20071;-50
2022/01/24 12:31:44;;;;;;;23.23;16.67;;;6.20;81.00;;;;;;5032279;28;20057;-45
2022/01/24 12:34:16;;;;;;;22.25;17.13;;;6.20;81.40;;;;;;5032380;28;20026;-52
2022/01/24 12:37:00;;;;;;;27.02;18.38;;;6.20;81.20;;;;;;5034208;28;20045;-47
2022/01/24 12:39:36;;;;;;;24.30;16.60;;;6.20;81.50;;;;;;5033550;28;20039;-49
2022/01/24 12:42:13;;;;;;;20.45;15.23;;;6.20;81.30;;;;;;5033504;28;20049;-48
2022/01/24 12:47:13;;;;;;;21.88;16.77;;;6.20;81.10;;;;;;5033527;28;20033;-47
2022/01/24 12:49:41;;;;;;;24.33;16.60;;;6.10;80.90;;;;;;5033204;28;20041;-46
2022/01/24 12:52:09;;;;;;;25.55;18.90;;;6.00;81.20;;;;;;5032215;28;20130;-49
2022/01/24 12:54:39;;;;;;;25.63;18.25;;;6.10;81.30;;;;;;5032932;28;20051;-45
2022/01/24 12:57:11;;;;;;;29.83;20.58;;;6.10;81.50;;;;;;5032071;28;20029;-51
2022/01/24 12:59:38;;;;;;;29.17;21.02;;;6.10;81.60;;;;;;5032766;28;20120;-48
2022/01/24 13:02:05;;;;;;;30.63;20.40;;;6.10;81.50;;;;;;5033575;28;20083;-50
2022/01/24 13:04:42;;;;;;;28.30;20.50;;;6.10;81.60;;;;;;5032201;28;20108;-51
2022/01/24 13:07:09;;;;;;;28.73;21.23;;;6.10;81.60;;;;;;5041632;28;20037;-49
2022/01/24 13:09:36;;;;;;;25.38;19.67;;;6.20;81.50;;;;;;5032195;28;20071;-52
2022/01/24 13:12:08;;;;;;;23.98;18.10;;;6.00;81.40;;;;;;5033310;28;20037;-48
2022/01/24 13:25:25;;;;;;;25.75;19.63;;;6.10;81.60;;;;;;5033589;28;20095;-46
2022/01/24 13:27:59;;;;;;;26.65;19.90;;;6.00;81.50;;;;;;5033556;28;20091;-53
2022/01/24 13:30:33;;;;;;;27.17;20.52;;;6.00;81.60;;;;;;5032923;28;20494;-46
2022/01/24 13:33:11;;;;;;;27.45;19.40;;;6.00;81.80;;;;;;5032780;28;20029;-46
2022/01/24 13:35:39;;;;;;;27.77;20.48;;;5.90;81.80;;;;;;5032927;28;20082;-45
2022/01/24 13:38:11;;;;;;;25.30;19.20;;;5.90;81.90;;;;;;5031747;28;20049;-47
2022/01/24 13:41:06;;;;;;;27.77;20.10;;;5.90;81.80;;;;;;5032990;28;20033;-47
2022/01/24 13:43:51;;;;;;;23.08;17.95;;;5.90;81.70;;;;;;5024554;28;20112;-50
2022/01/24 13:46:17;;;;;;;25.60;18.63;;;5.90;81.00;;;;;;5032890;28;20080;-50
2022/01/24 13:48:50;;;;;;;23.75;17.67;;;5.90;81.40;;;;;;5032479;28;20039;-49
2022/01/24 13:51:39;;;;;;;23.27;18.15;;;5.80;81.10;;;;;;5032298;28;20099;-48
2022/01/24 13:54:18;;;;;;;24.00;18.83;;;5.80;80.90;;;;;;5032112;28;20630;-51
2022/01/24 13:56:48;;;;;;;22.30;16.63;;;5.80;80.70;;;;;;5032426;28;20462;-49
2022/01/24 13:59:23;;;;;;;26.63;18.50;;;5.80;80.40;;;;;;5031834;28;20056;-45
2022/01/24 14:02:11;;;;;;;24.88;19.58;;;5.80;80.30;;;;;;5032344;28;20036;-48
2022/01/24 14:04:48;;;;;;;33.67;22.30;;;5.90;80.70;;;;;;5032948;28;20025;-49
2022/01/24 14:07:28;;;;;;;28.15;20.17;;;5.90;80.80;;;;;;5032796;28;20301;-46
2022/01/24 14:10:02;;;;;;;29.60;19.15;;;5.90;81.00;;;;;;5033102;28;20478;-48
2022/01/24 14:12:50;;;;;;;30.35;19.95;;;5.90;81.00;;;;;;5041739;28;20462;-47
2022/01/24 14:20:33;;;;;;;28.83;16.73;;;6.00;80.50;;;;;;5032482;28;20112;-47
2022/01/24 14:22:59;;;;;;;24.42;17.55;;;6.00;79.80;;;;;;5032403;28;20079;-47
2022/01/24 14:25:31;;;;;;;22.08;15.80;;;5.90;80.50;;;;;;5030591;28;20025;-46
2022/01/24 14:28:13;;;;;;;22.42;15.80;;;5.90;80.60;;;;;;5031329;28;20029;-49
2022/01/24 14:30:43;;;;;;;22.45;16.23;;;6.00;81.30;;;;;;5032099;28;20037;-49
2022/01/24 14:33:16;;;;;;;24.02;17.48;;;5.90;80.50;;;;;;5033025;28;20347;-51
2022/01/24 14:35:59;;;;;;;24.27;17.00;;;5.90;80.90;;;;;;5032889;28;20083;-46
2022/01/24 14:38:29;;;;;;;24.23;16.50;;;5.90;80.40;;;;;;5032942;28;20371;-48
2022/01/24 14:40:58;;;;;;;25.35;17.90;;;5.90;80.60;;;;;;5047927;28;20620;-47
2022/01/24 14:46:19;;;;;;;21.15;15.98;;;5.80;80.70;;;;;;5031665;28;20107;-49
2022/01/24 14:49:06;;;;;;;22.42;15.38;;;5.90;80.90;;;;;;5032734;28;20033;-46
2022/01/24 14:51:45;;;;;;;23.65;17.20;;;5.80;80.90;;;;;;5031396;28;20037;-51
2022/01/24 14:54:16;;;;;;;26.02;17.95;;;5.80;81.20;;;;;;5031040;28;20108;-45
2022/01/24 14:56:44;;;;;;;26.77;17.35;;;5.80;81.00;;;;;;5031683;28;20025;-47
2022/01/24 14:59:10;;;;;;;20.63;14.98;;;5.70;81.00;;;;;;5031775;28;20091;-50
2022/01/24 15:01:39;;;;;;;21.92;15.50;;;5.60;80.60;;;;;;5028733;28;20026;-49